Impacts METAR Board
IDs:

KAUS - Austin/Bergstrom Int, TX, US

Updated at: 0000 UTC 30 May 2020
Potential Impact None Slight Moderate High
Time 29/12Z 29/13Z 29/14Z 29/15Z 29/16Z 29/17Z 29/18Z 29/19Z 29/20Z 29/21Z 29/22Z 29/23Z 30/00Z
Temp71 73 74 77 81 80 84 85 85 86 88 87 85
Dewpt68 68 67 66 65 65 65 64 63 62 59 58 58
Altim30.08 30.09 30.11 30.10 30.11 30.13 30.10 30.11 30.10 30.09 30.07 30.06 30.06
VIS10 10 10 10 10 10 10 10 10 10 10 10 10
CIG-- -- 250 -- -- -- -- -- 250 250 250 250 250
CoverSCTSCTBKNSCTSCTSCTSCTSCTBKNBKNBKNBKNBKN
FltCatVFRVFRVFRVFRVFRVFRVFRVFRVFRVFRVFRVFRVFR
WX--------------------------
WDir3103401010101010203030502040
WSpd4 7 9 12 13 11 11 13 13 13 13 14 11
WGst-- -- -- -- -- -- -- -- 21 19 20 -- --
Raw hourly METARs
KAUS 291153Z 31004KT 10SM FEW045 SCT100 SCT200 22/20 A3008 RMK AO2 SLP176 T02170200 10222 20200 53007
KAUS 291253Z 34007KT 10SM FEW049 SCT100 SCT250 23/20 A3009 RMK AO2 SLP180 T02280200
KAUS 291353Z 01009KT 10SM FEW048 SCT100 BKN250 23/19 A3011 RMK AO2 SLP186 T02330194
KAUS 291453Z 01012KT 10SM SCT250 25/19 A3010 RMK AO2 SLP184 T02500189 50008
KAUS 291553Z 01013KT 10SM FEW055 FEW100 SCT250 27/18 A3011 RMK AO2 SLP185 T02720183
KAUS 291653Z 01011KT 10SM FEW034 FEW100 SCT250 27/18 A3013 RMK AO2 SLP192 T02670183
KAUS 291753Z 01011KT 10SM FEW041 FEW100 SCT250 29/18 A3010 RMK AO2 SLP183 T02890183 10289 20217 50001
KAUS 291853Z 02013KT 10SM FEW040 FEW100 SCT250 29/18 A3011 RMK AO2 SLP187 T02940178
KAUS 291953Z 03013G21KT 10SM FEW040 FEW100 BKN250 29/17 A3010 RMK AO2 SLP183 T02940172
KAUS 292053Z 03013G19KT 10SM FEW040 FEW100 BKN250 30/17 A3009 RMK AO2 SLP181 T03000167 58004
KAUS 292153Z 05013G20KT 10SM FEW040 FEW100 BKN250 31/15 A3007 RMK AO2 SLP173 T03110150
KAUS 292253Z 02014KT 10SM FEW100 BKN250 31/14 A3006 RMK AO2 SLP169 T03060144
KAUS 292353Z 04011KT 10SM SCT100 BKN250 29/14 A3006 RMK AO2 SLP168 T02940144 10311 20289 56011